GALLO VINEYARDS WEATHER NETWORK
                           Weekly Meteorological Summary
                                Station: Claussen

              T e m p e r a t u r e   Avg   Max   Min     W  I  N   D     Total  Daily  Daily   Seas    Cont        Mildew    Min
              Max Occur   Min Occur DewPt    RH    RH   Avg   Max  Gust  SolRad    ETo Precip Precip   Hours Hours  Stress    Bat
   Date         F  Time     F  Time     F     %     %   mph   mph   Dir Cal/cm2     In     In  7/1->  70-85F  >95F     Pts  Volts
---------------------------------------------------------------------------------------------------------------------------------
  09/15/18   79.4  1450  57.7  2309  47.9    77    27   7.2  21.3   WSW     560   0.21   0.00   0.00     7.9   0.0      80   12.5
  09/16/18   84.4  1602  47.8   544  49.4    94    27   4.2  16.3     W     561   0.19   0.00   0.00     9.0   0.0     100   12.5
  09/17/18   85.4  1434  47.8   451  50.7    94    29   4.5  18.5   WNW     548   0.19   0.00   0.00     8.6   0.0     100   12.5
  09/18/18   84.5  1617  53.7   659  50.6    86    30   3.9  12.8   WNW     541   0.18   0.00   0.00     9.1   0.0     100   12.5
  09/19/18   88.4  1523  47.0   559  50.6    94    25   3.1  16.4    NW     535   0.19   0.00   0.00     4.1   0.0      90   12.5
  09/20/18   92.9  1557  53.0  2351  46.1    83    16   2.7  12.2   WNW     540   0.20   0.00   0.00     3.9   0.0      80   12.5
  09/21/18   96.0  1519  47.4   657  47.2    90    17   2.2  10.2   NNW     525   0.19   0.00   0.00     3.3   1.0      70   12.5

                                                                                                                                     
   Avg/Tot   87.3        50.6        48.9    88    24   4.0  15.4           544   1.35   0.00           45.8   1.0
=================================================================================================================================
  Hourly Observations
                         Dew          Hourly     Max  SolRad   Hrly   -----Since Midnight-----
                  Temp    Pt    RH  Wind  Wind  Gust   Watts   Prec   Prec    ETo  MinT   MaxT
   Date    Time      F     F     %   Dir   mph   mph     /m2     In     in     In     F      F
----------------------------------------------------------------------------------------------
  09/22/18 1600   94.3  51.1    23   NNW   3.6   9.9     630   0.00   0.00  0.154   47.9  96.1
  09/22/18 1500   93.3  49.5    23   NNW   3.6   9.1     752   0.00   0.00  0.133   47.9  95.3
  09/22/18 1400   92.4  50.9    24   NNW   2.4   6.6     829   0.00   0.00  0.109   47.9  92.5
  09/22/18 1300   89.8  51.6    27    NW   2.9   7.2     832   0.00   0.00  0.084   47.9  89.8
  09/22/18 1200   84.5  53.8    35    NW   2.0   6.1     760   0.00   0.00  0.059   47.9  84.8
  09/22/18 1100   79.1  55.0    43     N   1.8   5.7     643   0.00   0.00  0.037   47.9  80.6
  09/22/18 1000   72.0  55.2    55   NNW   2.0   4.6     468   0.00   0.00  0.020   47.9  72.0
  09/22/18 0900   67.8  55.9    66     N   2.1   5.9     269   0.00   0.00  0.009   47.9  67.9
  09/22/18 0800   60.2  55.0    83   NNE   0.9   2.9      86   0.00   0.00  0.002   47.9  61.6
  09/22/18 0700   49.0  47.9    96    NE   0.7   2.3       1   0.00   0.00  0.000   47.9  61.6
  09/22/18 0600   48.9  47.0    93   ESE   0.5   1.9       0   0.00   0.00  0.000   48.2  61.6
  09/22/18 0500   49.8  47.6    92   NNW   0.4   2.0       0   0.00   0.00  0.000   49.7  61.6
  09/22/18 0400   52.9  49.1    87   SSW   0.8   3.5       0   0.00   0.00  0.000   52.2  61.6
  09/22/18 0300   53.3  48.9    85   SSE   0.9   2.7       0   0.00   0.00  0.000   53.2  61.6
  09/22/18 0200   55.7  50.3    82   NNE   2.2   5.4       0   0.00   0.00  0.000   55.6  61.6
  09/22/18 0100   56.5  50.3    80   NNE   2.1   4.6       0   0.00   0.00  0.000   56.4  61.6
  09/22/18 0000   61.6  51.0    68   NNW   2.4   5.6       0   0.00   0.00  0.190   47.4  96.0
  09/21/18 2300   65.3  45.0    48   WNW   2.9   6.5       0   0.00   0.00  0.190   47.4  96.0
  09/21/18 2200   71.2  40.3    33   WNW   3.7   7.2       0   0.00   0.00  0.189   47.4  96.0
  09/21/18 2100   72.4  43.2    35     W   2.4   6.2       0   0.00   0.00  0.188   47.4  96.0
  09/21/18 2000   71.3  49.0    45   WNW   2.3   6.0       1   0.00   0.00  0.187   47.4  96.0
  09/21/18 1900   80.5  45.3    29    NW   3.9   9.2      71   0.00   0.00  0.187   47.4  96.0
  09/21/18 1800   89.4  47.6    24   NNW   4.2  10.2     254   0.00   0.00  0.183   47.4  96.0
  09/21/18 1700   94.5  48.0    21   NNW   3.7   9.0     454   0.00   0.00  0.174   47.4  96.0
  09/21/18 1600   94.5  45.1    18   NNW   4.0   9.0     630   0.00   0.00  0.158   47.4  96.0
  09/21/18 1500   95.0  47.3    20   NNW   3.3   8.7     761   0.00   0.00  0.137   47.4  95.9
  09/21/18 1400   93.7  50.2    23     N   2.7   7.2     833   0.00   0.00  0.112   47.4  94.7
  09/21/18 1300   91.1  45.5    21    NW   2.1   6.5     841   0.00   0.00  0.086   47.4  92.7
  09/21/18 1200   87.6  47.1    25   NNW   1.9   6.0     776   0.00   0.00  0.061   47.4  89.0
  09/21/18 1100   82.8  50.4    33    NW   1.6   4.4     650   0.00   0.00  0.039   47.4  82.8
  09/21/18 1000   74.3  51.0    44    NW   1.9   5.4     471   0.00   0.00  0.021   47.4  74.7
  09/21/18 0900   67.2  51.5    57   WNW   0.9   3.7     273   0.00   0.00  0.009   47.4  67.7
  09/21/18 0800   60.7  49.4    66   NNW   0.6   1.5      83   0.00   0.00  0.002   47.4  61.2
  09/21/18 0700   47.4  43.9    88    NE   0.9   2.4       2   0.00   0.00  0.000   47.4  56.3
  09/21/18 0600   48.1  44.4    87   ENE   1.4   2.7       0   0.00   0.00  0.000   48.1  56.3
  09/21/18 0500   54.9  47.0    75     S   1.1   3.0       0   0.00   0.00  0.000   50.5  56.3
  09/21/18 0400   54.5  47.0    76   SSW   1.4   3.1       0   0.00   0.00  0.000   50.5  56.3
  09/21/18 0300   52.6  46.9    81   ESE   0.9   2.2       0   0.00   0.00  0.000   50.5  56.1
  09/21/18 0200   51.5  46.1    82     E   1.0   3.4       0   0.00   0.00  0.000   51.5  56.1
  09/21/18 0100   54.4  47.5    78   SSW   1.1   3.8       0   0.00   0.00  0.000   53.9  56.1
  09/21/18 0000   54.0  48.1    81   SSE   0.8   3.0       0   0.00   0.00  0.196   53.0  92.9
  09/20/18 2300   61.3  48.3    62     W   2.2   3.5       0   0.00   0.00  0.196   53.1  92.9
  09/20/18 2200   65.0  47.7    54   WSW   2.0   5.2       0   0.00   0.00  0.196   53.1  92.9
  09/20/18 2100   63.5  50.4    62    SW   1.7   2.9       0   0.00   0.00  0.196   53.1  92.9
  09/20/18 2000   66.5  50.6    57    SW   0.2   1.4       1   0.00   0.00  0.196   53.1  92.9
  09/20/18 1900   73.5  56.4    55    NW   0.1   3.7      77   0.00   0.00  0.196   53.1  92.9
  09/20/18 1800   90.5  44.9    21     N   3.0   9.5     272   0.00   0.00  0.196   53.1  92.9
  09/20/18 1700   91.6  45.1    20     N   4.4  11.6     480   0.00   0.00  0.187   53.1  92.9
  09/20/18 1600   91.8  41.9    18   NNW   4.1  10.3     660   0.00   0.00  0.170   53.1  92.9
  09/20/18 1500   91.6  42.5    18   NNW   4.0  10.3     790   0.00   0.00  0.149   53.1  92.2
  09/20/18 1400   89.0  42.5    20   WNW   4.1  10.2     851   0.00   0.00  0.123   53.1  90.1
  09/20/18 1300   86.9  43.7    22   WNW   4.6  12.1     848   0.00   0.00  0.096   53.1  88.1
  09/20/18 1200   83.8  44.9    26    NW   4.5  11.6     785   0.00   0.00  0.070   53.1  84.2
  09/20/18 1100   78.3  42.6    28   NNW   5.4  12.2     658   0.00   0.00  0.046   53.1  79.5
  09/20/18 1000   73.9  41.7    31   NNW   4.2  10.3     482   0.00   0.00  0.026   53.1  74.6
  09/20/18 0900   72.3  41.9    33     E   1.4   8.0     282   0.00   0.00  0.012   53.1  74.6
  09/20/18 0800   66.2  49.0    54   SSW   0.5   2.0      87   0.00   0.00  0.004   53.1  66.2
  09/20/18 0700   53.5  43.1    68   WSW   2.1   4.4       2   0.00   0.00  0.002   53.3  64.9
  09/20/18 0600   57.0  42.6    58     W   2.5   5.0       0   0.00   0.00  0.001   53.6  64.9
  09/20/18 0500   60.2  42.9    53   WNW   3.8   9.1       0   0.00   0.00  0.001   53.6  64.9
  09/20/18 0400   62.6  44.2    51     W   3.1   7.3       0   0.00   0.00  0.000   53.6  62.6
  09/20/18 0300   57.2  50.5    78   WNW   1.4   3.4       0   0.00   0.00  0.000   53.6  62.6
  09/20/18 0200   59.7  49.5    69   WNW   2.4   4.6       0   0.00   0.00  0.000   56.2  62.6
  09/20/18 0100   58.2  49.8    74     W   1.7   4.2       0   0.00   0.00  0.000   56.2  62.6
  09/20/18 0000   62.5  50.2    64     W   2.4   4.5       0   0.00   0.00  0.186   47.0  88.4
  09/19/18 2300   64.9  50.0    59     W   2.8   5.0       0   0.00   0.00  0.186   47.0  88.4
  09/19/18 2200   65.7  51.0    59     W   2.5   4.8       0   0.00   0.00  0.186   47.0  88.4
  09/19/18 2100   68.4  51.1    54   WNW   2.9   7.1       0   0.00   0.00  0.186   47.0  88.4
  09/19/18 2000   73.2  51.2    46    NW   3.2   7.8       2   0.00   0.00  0.186   47.0  88.4
  09/19/18 1900   75.8  53.1    45    NW   1.9   6.9      82   0.00   0.00  0.185   47.0  88.4
  09/19/18 1800   85.9  51.9    31    NW   4.3  10.7     272   0.00   0.00  0.183   47.0  88.4
  09/19/18 1700   87.1  51.7    30   NNW   5.4  12.9     475   0.00   0.00  0.173   47.0  88.4
  09/19/18 1600   86.8  49.8    28    NW   5.2  13.2     649   0.00   0.00  0.157   47.0  88.4
  09/19/18 1500   85.8  50.6    30    NW   5.6  14.0     773   0.00   0.00  0.135   47.0  87.0
  09/19/18 1400   85.5  52.3    32    NW   5.7  12.8     842   0.00   0.00  0.111   47.0  85.7
  09/19/18 1300   82.0  53.8    38    NW   5.7  16.4     840   0.00   0.00  0.085   47.0  82.9
  09/19/18 1200   76.9  55.4    47    NW   5.5  12.9     776   0.00   0.00  0.060   47.0  78.7
  09/19/18 1100   74.3  54.9    51    NW   4.6  11.0     653   0.00   0.00  0.039   47.0  74.4
  09/19/18 1000   69.4  54.6    59   NNW   2.4   7.7     480   0.00   0.00  0.021   47.0  69.5
  09/19/18 0900   67.3  53.2    60   NNW   1.9   5.3     281   0.00   0.00  0.009   47.0  67.4
  09/19/18 0800   59.5  52.0    76     W   1.2   3.9      91   0.00   0.00  0.002   47.0  60.1
  09/19/18 0700   49.7  47.5    92     W   1.8   4.3       2   0.00   0.00  0.000   47.0  60.1
  09/19/18 0600   47.1  44.6    91    NW   1.0   3.2       0   0.00   0.00  0.000   47.0  60.1
  09/19/18 0500   54.0  48.0    80   WNW   1.8   4.7       0   0.00   0.00  0.000   47.8  60.1
  09/19/18 0400   52.2  47.8    85   NNW   1.3   4.4       0   0.00   0.00  0.000   47.8  60.1
  09/19/18 0300   48.8  45.4    88    NE   1.1   2.3       0   0.00   0.00  0.000   48.5  60.1
  09/19/18 0200   53.9  47.6    79   WNW   2.0   8.0       0   0.00   0.00  0.000   53.9  60.1
  09/19/18 0100   58.0  48.5    70     W   3.2   7.1       0   0.00   0.00  0.000   58.0  60.1
  09/19/18 0000   59.6  48.1    66     W   3.0   7.6       0   0.00   0.00  0.180   53.7  84.5
  09/18/18 2300   60.9  48.5    64   WNW   2.9   7.7       0   0.00   0.00  0.180   53.7  84.5
  09/18/18 2200   63.4  49.4    60     W   4.7  11.1       0   0.00   0.00  0.180   53.7  84.5
  09/18/18 2100   64.6  49.9    59     W   4.8  10.7       0   0.00   0.00  0.179   53.7  84.5
  09/18/18 2000   69.1  49.8    50     W   3.1  11.7       2   0.00   0.00  0.178   53.7  84.5
  09/18/18 1900   73.5  48.0    40    NW   3.2  11.0      84   0.00   0.00  0.178   53.7  84.5
  09/18/18 1800   80.5  48.4    33    NW   4.7  11.2     276   0.00   0.00  0.175   53.7  84.5
  09/18/18 1700   82.2  52.2    35    NW   4.1  10.1     479   0.00   0.00  0.166   53.7  84.5
  09/18/18 1600   84.3  52.0    33    NW   4.7  11.4     657   0.00   0.00  0.151   53.7  84.4
  09/18/18 1500   83.0  49.4    31    NW   4.5  11.2     784   0.00   0.00  0.131   53.7  83.3
  09/18/18 1400   81.3  53.1    38    NW   4.4   9.3     848   0.00   0.00  0.107   53.7  81.4
  09/18/18 1300   77.8  51.8    40    NW   4.2  11.0     851   0.00   0.00  0.083   53.7  79.3
  09/18/18 1200   75.9  53.2    45    NW   3.7  10.8     786   0.00   0.00  0.059   53.7  75.9
  09/18/18 1100   71.2  51.5    50    NW   3.7  11.1     661   0.00   0.00  0.039   53.7  71.9
  09/18/18 1000   66.0  52.0    61    NW   3.3   8.0     486   0.00   0.00  0.022   53.7  66.3
  09/18/18 0900   63.9  52.0    65    NW   2.6   6.9     285   0.00   0.00  0.010   53.7  64.0
  09/18/18 0800   59.0  51.4    76   WNW   2.0   5.0      91   0.00   0.00  0.004   53.7  59.3
  09/18/18 0700   53.7  49.3    85   WNW   3.8  11.1       2   0.00   0.00  0.001   53.7  59.3
  09/18/18 0600   54.8  50.1    84    NW   3.4   7.8       0   0.00   0.00  0.001   53.9  59.3
  09/18/18 0500   55.4  50.2    83   WNW   4.5  12.8       0   0.00   0.00  0.001   55.0  59.3
  09/18/18 0400   55.3  50.2    83   WNW   4.0  10.4       0   0.00   0.00  0.001   55.2  59.3
  09/18/18 0300   55.7  49.6    80     W   5.1  12.8       0   0.00   0.00  0.001   55.7  59.3
  09/18/18 0200   57.5  49.9    76     W   3.8   9.6       0   0.00   0.00  0.000   57.2  59.3
  09/18/18 0100   58.3  50.4    75     W   5.4  12.6       0   0.00   0.00  0.000   58.3  59.3
  09/18/18 0000   59.2  50.6    73     W   6.0  14.5       0   0.00   0.00  0.193   47.8  85.4
  09/17/18 2300   59.3  51.0    74   WNW   6.7  15.6       0   0.00   0.00  0.192   47.8  85.4
  09/17/18 2200   59.8  51.0    73     W   7.6  16.6       0   0.00   0.00  0.192   47.8  85.4
  09/17/18 2100   61.3  51.1    69     W   7.8  16.7       0   0.00   0.00  0.191   47.8  85.4
  09/17/18 2000   64.6  48.8    56     W   7.1  18.5       2   0.00   0.00  0.189   47.8  85.4
  09/17/18 1900   68.8  47.8    47     W   7.5  18.0      90   0.00   0.00  0.187   47.8  85.4
  09/17/18 1800   74.8  48.6    40     W   8.4  17.6     284   0.00   0.00  0.184   47.8  85.4
  09/17/18 1700   79.0  50.2    37   WSW   7.3  16.9     488   0.00   0.00  0.172   47.8  85.4
  09/17/18 1600   84.4  50.8    31   WSW   6.0  13.4     662   0.00   0.00  0.155   47.8  85.4
  09/17/18 1500   83.7  50.6    32   WNW   4.1  11.8     787   0.00   0.00  0.134   47.8  85.4
  09/17/18 1400   82.2  51.3    34    NW   3.7   9.9     854   0.00   0.00  0.110   47.8  84.1
  09/17/18 1300   80.4  50.9    36    NW   2.9   8.0     856   0.00   0.00  0.085   47.8  81.1
  09/17/18 1200   78.0  52.8    42   NNW   3.5   8.3     792   0.00   0.00  0.061   47.8  78.4
  09/17/18 1100   75.2  54.0    48    NW   3.6   8.1     666   0.00   0.00  0.040   47.8  76.2
  09/17/18 1000   68.7  54.5    60   WNW   4.1   8.7     492   0.00   0.00  0.022   47.8  69.2
  09/17/18 0900   63.9  53.9    70     W   5.6  12.2     291   0.00   0.00  0.010   47.8  64.0
  09/17/18 0800   59.8  53.2    79   WNW   3.7   7.8     100   0.00   0.00  0.003   47.8  59.8
  09/17/18 0700   54.5  51.4    89   WNW   2.4   6.1       3   0.00   0.00  0.000   47.8  59.8
  09/17/18 0600   53.7  50.2    88    NW   1.9   4.3       0   0.00   0.00  0.000   47.8  59.8
  09/17/18 0500   48.1  46.0    92   WSW   0.9   4.2       0   0.00   0.00  0.000   47.8  59.8
  09/17/18 0400   50.6  47.9    90   WSW   1.1   3.8       0   0.00   0.00  0.000   50.5  59.8
  09/17/18 0300   56.2  49.9    79   WNW   2.4   4.8       0   0.00   0.00  0.000   55.7  59.8
  09/17/18 0200   55.9  50.0    80   WNW   1.8   4.1       0   0.00   0.00  0.000   55.8  59.8
  09/17/18 0100   57.3  50.6    78   WNW   2.6   7.2       0   0.00   0.00  0.000   57.2  59.8
  09/17/18 0000   59.7  51.5    74     W   4.3   9.1       0   0.00   0.00  0.192   47.8  84.4
  09/16/18 2300   61.2  51.9    71     W   6.0  15.1       0   0.00   0.00  0.192   47.8  84.4
  09/16/18 2200   62.4  52.7    71     W   6.8  15.6       0   0.00   0.00  0.192   47.8  84.4
  09/16/18 2100   64.1  53.0    67     W   6.2  16.3       0   0.00   0.00  0.191   47.8  84.4
  09/16/18 2000   67.7  49.8    53     W   4.6  11.1       2   0.00   0.00  0.190   47.8  84.4
  09/16/18 1900   72.5  49.5    44   WNW   4.8  12.2      97   0.00   0.00  0.188   47.8  84.4
  09/16/18 1800   79.4  48.3    34   NNW   5.3  12.5     296   0.00   0.00  0.185   47.8  84.4
  09/16/18 1700   82.3  46.5    29   NNW   4.8  12.3     501   0.00   0.00  0.175   47.8  84.4
  09/16/18 1600   83.4  47.3    28   NNW   4.7  11.7     677   0.00   0.00  0.158   47.8  84.3
  09/16/18 1500   82.4  48.7    31   NNW   4.5  11.5     804   0.00   0.00  0.137   47.8  83.3
  09/16/18 1400   81.6  48.6    32   NNW   4.9  12.5     871   0.00   0.00  0.113   47.8  81.8
  09/16/18 1300   79.5  49.9    36   NNW   4.6  12.5     870   0.00   0.00  0.088   47.8  80.4
  09/16/18 1200   75.8  49.3    39   WNW   3.8  11.3     807   0.00   0.00  0.063   47.8  76.7
  09/16/18 1100   72.1  48.3    43   WNW   4.7  12.1     681   0.00   0.00  0.041   47.8  72.6
  09/16/18 1000   68.4  49.1    50   WNW   4.5   9.6     504   0.00   0.00  0.023   47.8  69.3
  09/16/18 0900   64.7  50.5    60     W   4.7  10.6     300   0.00   0.00  0.010   47.8  65.1
  09/16/18 0800   58.5  50.7    75   WNW   2.6   7.2     110   0.00   0.00  0.003   47.8  58.6
  09/16/18 0700   50.5  48.1    91    NW   1.7   3.9       3   0.00   0.00  0.000   47.8  58.1
  09/16/18 0600   49.5  47.9    94    NW   1.5   3.3       0   0.00   0.00  0.000   47.8  58.1
  09/16/18 0500   52.0  48.3    87   WNW   2.1   5.0       0   0.00   0.00  0.000   51.8  58.1
  09/16/18 0400   52.3  48.2    86   WNW   2.1   6.1       0   0.00   0.00  0.000   52.0  58.1
  09/16/18 0300   55.5  49.5    80     W   4.5   9.3       0   0.00   0.00  0.000   55.5  58.1
  09/16/18 0200   56.4  49.9    79     W   3.7   8.4       0   0.00   0.00  0.000   56.3  58.1
  09/16/18 0100   56.7  49.7    77     W   4.2  11.7       0   0.00   0.00  0.000   56.6  58.1
  09/16/18 0000   58.0  49.6    73     W   5.6  12.3       0   0.00   0.00  0.210   57.7  79.4
  09/15/18 2300   57.9  50.8    77     W   6.0  14.5       0   0.00   0.00  0.209   57.9  79.4
  09/15/18 2200   58.9  50.8    75     W   6.2  16.6       0   0.00   0.00  0.209   58.0  79.4
  09/15/18 2100   59.6  51.2    74     W   8.3  18.1       0   0.00   0.00  0.208   58.0  79.4
  09/15/18 2000   62.2  50.9    67     W   8.1  18.6       3   0.00   0.00  0.207   58.0  79.4
  09/15/18 1900   66.3  46.7    49     W   9.6  21.3     105   0.00   0.00  0.206   58.0  79.4
  09/15/18 1800   72.0  44.3    37     W   9.7  20.2     305   0.00   0.00  0.202   58.0  79.4
  09/15/18 1700   76.0  42.2    30     W   9.1  19.7     513   0.00   0.00  0.189   58.0  79.4
  09/15/18 1600   76.8  42.9    30   WSW   9.0  20.7     691   0.00   0.00  0.171   58.0  79.4